ADDS METAR Data INFO
IDs: Format: Raw Decoded Include TAF

Data at: 2313 UTC 16 Jan 2018

KBVU 162255Z AUTO 31008KT 10SM CLR 17/01 A3018 RMK AO2
KBVU 162235Z AUTO 32007KT 10SM CLR 17/01 A3018 RMK AO2
KBVU 162215Z AUTO 00000KT 10SM CLR 16/01 A3017 RMK AO2
KBVU 162155Z AUTO 21004KT 10SM CLR 17/01 A3017 RMK AO2
KBVU 162135Z AUTO 05005KT 10SM CLR 15/02 A3017 RMK AO2
KBVU 162115Z AUTO 05004KT 10SM CLR 15/02 A3017 RMK AO2
KBVU 162055Z AUTO 00000KT 10SM CLR 15/02 A3018 RMK AO2
KBVU 162035Z AUTO 00000KT 10SM CLR 15/01 A3018 RMK AO2
KBVU 162015Z AUTO 05005KT 10SM CLR 15/01 A3019 RMK AO2
KBVU 161955Z AUTO 32006KT 10SM CLR 15/01 A3021 RMK AO2
KBVU 161935Z AUTO 32010KT 10SM CLR 15/01 A3022 RMK AO2
KBVU 161915Z AUTO 30009KT 10SM CLR 15/02 A3023 RMK AO2
KBVU 161855Z AUTO 00000KT 10SM CLR 14/03 A3023 RMK AO2
KBVU 161835Z AUTO 26007KT 10SM CLR 13/05 A3024 RMK AO2
KBVU 161815Z AUTO 00000KT 10SM CLR 13/04 A3023 RMK AO2
KBVU 161755Z AUTO 24004KT 10SM CLR 12/05 A3024 RMK AO2
KBVU 161735Z AUTO 21004KT 10SM CLR 12/05 A3023 RMK AO2
KBVU 161715Z AUTO 00000KT 10SM CLR 10/05 A3022 RMK AO2
KBVU 161655Z AUTO 00000KT 10SM CLR 09/05 A3022 RMK AO2
KBVU 161635Z AUTO 24004KT 10SM CLR 10/05 A3021 RMK AO2
KBVU 161615Z AUTO 12004KT 10SM CLR 09/04 A3020 RMK AO2
KBVU 161555Z AUTO 00000KT 10SM CLR 09/05 A3021 RMK AO2
KBVU 161535Z AUTO 00000KT 10SM CLR 09/04 A3020 RMK AO2
KBVU 161515Z AUTO 28003KT 10SM CLR 08/04 A3020 RMK AO2
KBVU 161455Z AUTO 00000KT 10SM CLR 09/03 A3019 RMK AO2
KBVU 161435Z AUTO 36005KT 10SM CLR 09/03 A3018 RMK AO2
KBVU 161415Z AUTO 00000KT 10SM CLR 09/03 A3018 RMK AO2
KBVU 161355Z AUTO 00000KT 10SM FEW050 08/04 A3018 RMK AO2
KBVU 161335Z AUTO 00000KT 10SM FEW050 08/04 A3018 RMK AO2
KBVU 161315Z AUTO 00000KT 10SM FEW049 09/04 A3017 RMK AO2
KBVU 161255Z AUTO 00000KT 10SM FEW048 FEW055 09/04 A3017 RMK AO2
KBVU 161235Z AUTO 29003KT 10SM FEW050 10/03 A3017 RMK AO2
KBVU 161215Z AUTO 00000KT 10SM FEW050 09/04 A3015 RMK AO2
KBVU 161155Z AUTO 26007KT 10SM FEW048 10/04 A3016 RMK AO2
KBVU 161135Z AUTO 33004KT 10SM CLR 09/04 A3015 RMK AO2
KBVU 161115Z AUTO 33003KT 10SM FEW043 FEW055 08/05 A3016 RMK AO2
KBVU 161055Z AUTO 26004KT 10SM FEW034 SCT041 SCT046 09/04 A3016 RMK AO2
KBVU 161035Z AUTO 00000KT 10SM FEW038 SCT047 12/02 A3015 RMK AO2
KBVU 161015Z AUTO 00000KT 10SM CLR 10/04 A3015 RMK AO2
KBVU 160955Z AUTO 00000KT 10SM FEW049 11/04 A3016 RMK AO2
KBVU 160935Z AUTO 35007KT 10SM FEW045 FEW050 11/04 A3015 RMK AO2
KBVU 160915Z AUTO 00000KT 10SM FEW043 FEW050 11/05 A3015 RMK AO2
KBVU 160855Z AUTO 00000KT 10SM FEW120 10/05 A3014 RMK AO2
KBVU 160835Z AUTO 00000KT 10SM SCT120 11/05 A3014 RMK AO2
KBVU 160815Z AUTO 00000KT 10SM FEW120 11/05 A3014 RMK AO2
KBVU 160755Z AUTO 22003KT 10SM FEW120 12/05 A3014 RMK AO2
KBVU 160735Z AUTO 00000KT 10SM FEW031 FEW037 FEW047 13/04 A3014 RMK AO2
KBVU 160715Z AUTO 00000KT 10SM FEW031 FEW039 SCT046 14/03 A3015 RMK AO2
KBVU 160655Z AUTO 30003KT 10SM FEW043 FEW120 13/04 A3015 RMK AO2
KBVU 160635Z AUTO 34004KT 10SM FEW045 12/04 A3015 RMK AO2
KBVU 160615Z AUTO 33005KT 10SM FEW036 FEW044 12/04 A3015 RMK AO2
KBVU 160555Z AUTO 34003KT 10SM FEW036 FEW043 FEW048 12/04 A3015 RMK AO2
KBVU 160535Z AUTO 30004KT 10SM FEW034 FEW041 FEW046 12/03 A3015 RMK AO2
KBVU 160515Z AUTO 00000KT 10SM FEW034 FEW043 SCT050 13/03 A3015 RMK AO2
KBVU 160455Z AUTO 03004KT 10SM CLR 13/03 A3015 RMK AO2
KBVU 160435Z AUTO 04005KT 10SM FEW036 FEW044 FEW050 12/03 A3015 RMK AO2
KBVU 160415Z AUTO 02004KT 10SM FEW042 FEW048 FEW055 14/03 A3015 RMK AO2
KBVU 160355Z AUTO 36004KT 10SM FEW048 13/04 A3014 RMK AO2
KBVU 160335Z AUTO 33003KT 10SM FEW039 FEW048 13/03 A3014 RMK AO2
KBVU 160315Z AUTO 00000KT 10SM FEW040 FEW047 14/03 A3014 RMK AO2
KBVU 160255Z AUTO 00000KT 10SM CLR 14/03 A3014 RMK AO2
KBVU 160235Z AUTO 00000KT 10SM FEW050 14/03 A3013 RMK AO2
KBVU 160215Z AUTO 01004KT 10SM FEW047 14/03 A3013 RMK AO2
KBVU 160155Z AUTO 00000KT 10SM CLR 14/03 A3013 RMK AO2
KBVU 160135Z AUTO 00000KT 10SM CLR 14/03 A3012 RMK AO2
KBVU 160115Z AUTO 00000KT 10SM CLR 15/03 A3012 RMK AO2
KBVU 160055Z AUTO 30004KT 10SM CLR 16/03 A3012 RMK AO2
KBVU 160035Z AUTO 31005KT 10SM CLR 17/02 A3011 RMK AO2
KBVU 160015Z AUTO 00000KT 10SM CLR 18/02 A3011 RMK AO2
KBVU 152355Z AUTO 06004KT 10SM CLR 18/01 A3011 RMK AO2
KBVU 152335Z AUTO 05005KT 10SM CLR 18/01 A3011 RMK AO2
KBVU 152315Z AUTO 06004KT 10SM CLR 18/01 A3011 RMK AO2
KBVU 152255Z AUTO 05006KT 10SM CLR 18/01 A3011 RMK AO2
KBVU 152235Z AUTO 03005KT 10SM CLR 18/01 A3011 RMK AO2
KBVU 152215Z AUTO 05003KT 10SM CLR 18/01 A3011 RMK AO2
KBVU 152155Z AUTO 04004KT 10SM CLR 18/02 A3011 RMK AO2
KBVU 152135Z AUTO 04005KT 10SM CLR 18/02 A3011 RMK AO2
KBVU 152115Z AUTO 04006KT 10SM CLR 18/02 A3012 RMK AO2
KBVU 152055Z AUTO 00000KT 10SM CLR 17/02 A3012 RMK AO2
KBVU 152035Z AUTO 08004KT 10SM CLR 17/02 A3014 RMK AO2
KBVU 152015Z AUTO 19003KT 10SM CLR 17/03 A3014 RMK AO2
KBVU 151955Z AUTO VRB04KT 10SM CLR 17/03 A3015 RMK AO2
KBVU 151935Z AUTO 00000KT 10SM CLR 16/03 A3016 RMK AO2
KBVU 151915Z AUTO 24004KT 10SM CLR 15/03 A3017 RMK AO2
KBVU 151855Z AUTO VRB03KT 10SM CLR 15/03 A3018 RMK AO2
KBVU 151835Z AUTO 00000KT 10SM CLR 14/04 A3019 RMK AO2
KBVU 151815Z AUTO 00000KT 10SM CLR 13/04 A3020 RMK AO2
KBVU 151755Z AUTO 00000KT 10SM CLR 12/04 A3021 RMK AO2
KBVU 151735Z AUTO 00000KT 10SM CLR 11/04 A3020 RMK AO2
KBVU 151715Z AUTO 00000KT 10SM CLR 10/04 A3020 RMK AO2
KBVU 151655Z AUTO 00000KT 10SM CLR 10/03 A3020 RMK AO2
KBVU 151635Z AUTO 00000KT 10SM CLR 09/03 A3019 RMK AO2
KBVU 151615Z AUTO 00000KT 10SM CLR 09/03 A3019 RMK AO2
KBVU 151555Z AUTO 00000KT 10SM CLR 11/01 A3018 RMK AO2
KBVU 151535Z AUTO 00000KT 10SM CLR 07/03 A3017 RMK AO2
KBVU 151515Z AUTO 25003KT 10SM CLR 07/02 A3018 RMK AO2
KBVU 151455Z AUTO 00000KT 10SM CLR 08/02 A3017 RMK AO2
KBVU 151435Z AUTO 00000KT 10SM CLR 07/02 A3016 RMK AO2
KBVU 151415Z AUTO 00000KT 10SM FEW038 FEW046 FEW060 06/03 A3018 RMK AO2
KBVU 151355Z AUTO 25005KT 10SM SCT041 BKN048 BKN060 08/03 A3017 RMK AO2
KBVU 151335Z AUTO 00000KT 10SM FEW033 SCT045 BKN050 06/03 A3016 RMK AO2
KBVU 151315Z AUTO 00000KT 10SM FEW038 SCT044 SCT049 06/03 A3016 RMK AO2
KBVU 151255Z AUTO 00000KT 10SM SCT042 SCT049 06/03 A3016 RMK AO2
KBVU 151235Z AUTO 00000KT 10SM SCT044 SCT049 SCT060 07/03 A3016 RMK AO2
KBVU 151215Z AUTO 27004KT 10SM FEW039 SCT047 SCT060 09/02 A3016 RMK AO2
KBVU 151155Z AUTO 29004KT 10SM FEW040 FEW048 FEW055 11/01 A3017 RMK AO2
KBVU 151135Z AUTO 36004KT 10SM CLR 09/02 A3017 RMK AO2
KBVU 151115Z AUTO 00000KT 10SM FEW043 08/02 A3018 RMK AO2